Terminal Aerodrome Forecast
Issued by NWS Honolulu, HI

Home | Current Version | Previous Version | Text Only | Print | Product List | Glossary On
Versions: 1 2 3 4 5 6 7 8 9 10 11 12 13 14 15 16 17 18 19 20 21 22 23 24 25
000
FTPA31 PHFO 241727
TAFHNL
TAF
PHNL 241727Z 2418/2524 05010KT P6SM FEW025 BKN060
     FM241900 05018G25KT P6SM FEW025 SCT050 BKN250
     FM250500 05010KT P6SM FEW025 SCT050 BKN250
      TEMPO 2505/2509 05010G18KT
     FM251900 06016G24KT P6SM FEW025 SCT050=

USA.gov is the U.S. government's official web portal to all federal, state and local government web resources and services.